sensor_id;sensor_type;location;lat;lon;timestamp;P1;durP1;ratioP1;P2;durP2;ratioP2
16954;SDS011;8594;52.052;8.354;2023-04-24T00:01:13;2.70;;;1.10;;
16954;SDS011;8594;52.052;8.354;2023-04-24T00:03:42;3.13;;;1.10;;
16954;SDS011;8594;52.052;8.354;2023-04-24T00:06:09;0.90;;;0.90;;
16954;SDS011;8594;52.052;8.354;2023-04-24T00:08:35;1.57;;;0.97;;
16954;SDS011;8594;52.052;8.354;2023-04-24T00:11:03;6.97;;;1.00;;
16954;SDS011;8594;52.052;8.354;2023-04-24T00:13:30;1.70;;;0.77;;
16954;SDS011;8594;52.052;8.354;2023-04-24T00:15:57;0.70;;;0.70;;
16954;SDS011;8594;52.052;8.354;2023-04-24T00:18:24;1.27;;;0.97;;
16954;SDS011;8594;52.052;8.354;2023-04-24T00:20:51;0.60;;;0.60;;
16954;SDS011;8594;52.052;8.354;2023-04-24T00:23:17;0.80;;;0.60;;
16954;SDS011;8594;52.052;8.354;2023-04-24T00:25:44;1.67;;;0.80;;
16954;SDS011;8594;52.052;8.354;2023-04-24T00:28:13;1.20;;;0.70;;
16954;SDS011;8594;52.052;8.354;2023-04-24T00:30:40;0.70;;;0.67;;
16954;SDS011;8594;52.052;8.354;2023-04-24T00:33:07;0.90;;;0.70;;
16954;SDS011;8594;52.052;8.354;2023-04-24T00:35:34;1.17;;;0.87;;
16954;SDS011;8594;52.052;8.354;2023-04-24T00:38:01;4.83;;;1.00;;
16954;SDS011;8594;52.052;8.354;2023-04-24T00:40:28;3.50;;;0.80;;
16954;SDS011;8594;52.052;8.354;2023-04-24T00:42:55;1.97;;;1.00;;
16954;SDS011;8594;52.052;8.354;2023-04-24T00:45:23;1.50;;;0.77;;
16954;SDS011;8594;52.052;8.354;2023-04-24T00:47:50;0.90;;;0.80;;
16954;SDS011;8594;52.052;8.354;2023-04-24T00:50:20;1.00;;;0.73;;
16954;SDS011;8594;52.052;8.354;2023-04-24T00:52:47;1.53;;;0.80;;
16954;SDS011;8594;52.052;8.354;2023-04-24T00:55:14;2.50;;;0.80;;
16954;SDS011;8594;52.052;8.354;2023-04-24T00:57:41;2.20;;;0.97;;
16954;SDS011;8594;52.052;8.354;2023-04-24T01:00:09;5.13;;;1.30;;
16954;SDS011;8594;52.052;8.354;2023-04-24T01:02:39;2.00;;;1.00;;
16954;SDS011;8594;52.052;8.354;2023-04-24T01:05:08;1.33;;;0.90;;
16954;SDS011;8594;52.052;8.354;2023-04-24T01:07:36;1.43;;;0.93;;
16954;SDS011;8594;52.052;8.354;2023-04-24T01:10:05;1.30;;;1.00;;
16954;SDS011;8594;52.052;8.354;2023-04-24T01:12:34;1.87;;;0.90;;
16954;SDS011;8594;52.052;8.354;2023-04-24T01:15:01;0.80;;;0.80;;
16954;SDS011;8594;52.052;8.354;2023-04-24T01:17:30;1.93;;;1.07;;
16954;SDS011;8594;52.052;8.354;2023-04-24T01:19:59;1.33;;;1.07;;
16954;SDS011;8594;52.052;8.354;2023-04-24T01:22:32;1.50;;;1.10;;
16954;SDS011;8594;52.052;8.354;2023-04-24T01:24:59;2.20;;;1.03;;
16954;SDS011;8594;52.052;8.354;2023-04-24T01:27:26;2.83;;;1.20;;
16954;SDS011;8594;52.052;8.354;2023-04-24T01:29:53;5.43;;;1.30;;
16954;SDS011;8594;52.052;8.354;2023-04-24T01:32:20;3.03;;;1.00;;
16954;SDS011;8594;52.052;8.354;2023-04-24T01:34:48;1.20;;;0.90;;
16954;SDS011;8594;52.052;8.354;2023-04-24T01:37:15;2.17;;;1.00;;
16954;SDS011;8594;52.052;8.354;2023-04-24T01:39:44;1.67;;;1.10;;
16954;SDS011;8594;52.052;8.354;2023-04-24T01:42:10;1.93;;;1.10;;
16954;SDS011;8594;52.052;8.354;2023-04-24T01:44:39;1.30;;;1.07;;
16954;SDS011;8594;52.052;8.354;2023-04-24T01:47:06;2.53;;;1.23;;
16954;SDS011;8594;52.052;8.354;2023-04-24T01:49:34;1.83;;;1.23;;
16954;SDS011;8594;52.052;8.354;2023-04-24T01:52:01;1.50;;;1.17;;
16954;SDS011;8594;52.052;8.354;2023-04-24T01:54:27;1.13;;;1.03;;
16954;SDS011;8594;52.052;8.354;2023-04-24T01:56:55;2.30;;;1.30;;
16954;SDS011;8594;52.052;8.354;2023-04-24T01:59:23;1.93;;;1.27;;
16954;SDS011;8594;52.052;8.354;2023-04-24T02:01:53;1.63;;;1.10;;
16954;SDS011;8594;52.052;8.354;2023-04-24T02:04:19;1.73;;;1.33;;
16954;SDS011;8594;52.052;8.354;2023-04-24T02:06:46;2.97;;;1.50;;
16954;SDS011;8594;52.052;8.354;2023-04-24T02:09:13;1.60;;;1.33;;
16954;SDS011;8594;52.052;8.354;2023-04-24T02:11:40;1.50;;;1.40;;
16954;SDS011;8594;52.052;8.354;2023-04-24T02:14:08;1.77;;;1.47;;
16954;SDS011;8594;52.052;8.354;2023-04-24T02:16:35;2.07;;;1.60;;
16954;SDS011;8594;52.052;8.354;2023-04-24T02:19:02;1.90;;;1.40;;
16954;SDS011;8594;52.052;8.354;2023-04-24T02:21:29;2.00;;;1.40;;
16954;SDS011;8594;52.052;8.354;2023-04-24T02:23:56;1.67;;;1.43;;
16954;SDS011;8594;52.052;8.354;2023-04-24T02:26:23;3.30;;;1.50;;
16954;SDS011;8594;52.052;8.354;2023-04-24T02:28:51;1.90;;;1.50;;
16954;SDS011;8594;52.052;8.354;2023-04-24T02:31:19;2.90;;;2.10;;
16954;SDS011;8594;52.052;8.354;2023-04-24T02:33:46;2.97;;;2.00;;
16954;SDS011;8594;52.052;8.354;2023-04-24T02:36:12;1.70;;;1.60;;
16954;SDS011;8594;52.052;8.354;2023-04-24T02:38:39;3.27;;;1.90;;
16954;SDS011;8594;52.052;8.354;2023-04-24T02:41:06;2.03;;;1.80;;
16954;SDS011;8594;52.052;8.354;2023-04-24T02:43:33;2.90;;;2.00;;
16954;SDS011;8594;52.052;8.354;2023-04-24T02:45:59;3.77;;;2.00;;
16954;SDS011;8594;52.052;8.354;2023-04-24T02:48:28;2.53;;;2.00;;
16954;SDS011;8594;52.052;8.354;2023-04-24T02:50:54;3.77;;;1.97;;
16954;SDS011;8594;52.052;8.354;2023-04-24T02:53:22;2.27;;;2.07;;
16954;SDS011;8594;52.052;8.354;2023-04-24T02:55:49;2.50;;;1.87;;
16954;SDS011;8594;52.052;8.354;2023-04-24T02:58:16;3.43;;;2.00;;
16954;SDS011;8594;52.052;8.354;2023-04-24T03:00:44;3.00;;;2.00;;
16954;SDS011;8594;52.052;8.354;2023-04-24T03:03:11;3.10;;;2.30;;
16954;SDS011;8594;52.052;8.354;2023-04-24T03:05:40;2.83;;;2.00;;
16954;SDS011;8594;52.052;8.354;2023-04-24T03:08:06;2.57;;;2.00;;
16954;SDS011;8594;52.052;8.354;2023-04-24T03:10:33;3.33;;;2.37;;
16954;SDS011;8594;52.052;8.354;2023-04-24T03:13:00;2.53;;;1.90;;
16954;SDS011;8594;52.052;8.354;2023-04-24T03:15:27;5.33;;;2.13;;
16954;SDS011;8594;52.052;8.354;2023-04-24T03:17:54;2.53;;;2.10;;
16954;SDS011;8594;52.052;8.354;2023-04-24T03:20:21;4.23;;;2.10;;
16954;SDS011;8594;52.052;8.354;2023-04-24T03:22:49;1.90;;;1.80;;
16954;SDS011;8594;52.052;8.354;2023-04-24T03:25:16;4.30;;;2.13;;
16954;SDS011;8594;52.052;8.354;2023-04-24T03:27:42;2.33;;;1.97;;
16954;SDS011;8594;52.052;8.354;2023-04-24T03:30:10;2.90;;;1.90;;
16954;SDS011;8594;52.052;8.354;2023-04-24T03:32:37;2.83;;;2.10;;
16954;SDS011;8594;52.052;8.354;2023-04-24T03:35:04;3.50;;;2.20;;
16954;SDS011;8594;52.052;8.354;2023-04-24T03:37:32;4.43;;;2.37;;
16954;SDS011;8594;52.052;8.354;2023-04-24T03:40:00;4.17;;;2.40;;
16954;SDS011;8594;52.052;8.354;2023-04-24T03:42:27;3.03;;;2.27;;
16954;SDS011;8594;52.052;8.354;2023-04-24T03:44:54;4.87;;;2.47;;
16954;SDS011;8594;52.052;8.354;2023-04-24T03:47:21;4.10;;;2.13;;
16954;SDS011;8594;52.052;8.354;2023-04-24T03:49:48;2.80;;;2.20;;
16954;SDS011;8594;52.052;8.354;2023-04-24T03:52:15;3.63;;;2.33;;
16954;SDS011;8594;52.052;8.354;2023-04-24T03:54:41;4.07;;;2.17;;
16954;SDS011;8594;52.052;8.354;2023-04-24T03:57:09;8.40;;;2.43;;
16954;SDS011;8594;52.052;8.354;2023-04-24T03:59:36;5.30;;;2.30;;
16954;SDS011;8594;52.052;8.354;2023-04-24T04:02:03;2.87;;;2.33;;
16954;SDS011;8594;52.052;8.354;2023-04-24T04:04:30;3.43;;;2.17;;
16954;SDS011;8594;52.052;8.354;2023-04-24T04:06:57;5.03;;;2.70;;
16954;SDS011;8594;52.052;8.354;2023-04-24T04:09:26;5.93;;;2.23;;
16954;SDS011;8594;52.052;8.354;2023-04-24T04:11:53;5.03;;;2.30;;
16954;SDS011;8594;52.052;8.354;2023-04-24T04:14:21;3.80;;;2.70;;
16954;SDS011;8594;52.052;8.354;2023-04-24T04:16:48;5.43;;;2.40;;
16954;SDS011;8594;52.052;8.354;2023-04-24T04:19:15;7.47;;;2.83;;
16954;SDS011;8594;52.052;8.354;2023-04-24T04:21:42;4.67;;;2.60;;
16954;SDS011;8594;52.052;8.354;2023-04-24T04:24:10;3.77;;;2.53;;
16954;SDS011;8594;52.052;8.354;2023-04-24T04:26:37;2.80;;;2.40;;
16954;SDS011;8594;52.052;8.354;2023-04-24T04:29:05;10.47;;;3.03;;
16954;SDS011;8594;52.052;8.354;2023-04-24T04:31:34;5.83;;;2.90;;
16954;SDS011;8594;52.052;8.354;2023-04-24T04:34:01;6.80;;;3.57;;
16954;SDS011;8594;52.052;8.354;2023-04-24T04:36:28;9.50;;;4.50;;
16954;SDS011;8594;52.052;8.354;2023-04-24T04:38:55;10.23;;;6.27;;
16954;SDS011;8594;52.052;8.354;2023-04-24T04:41:24;10.10;;;6.60;;
16954;SDS011;8594;52.052;8.354;2023-04-24T04:43:51;11.07;;;7.27;;
16954;SDS011;8594;52.052;8.354;2023-04-24T04:46:17;16.10;;;8.77;;
16954;SDS011;8594;52.052;8.354;2023-04-24T04:48:46;12.40;;;8.40;;
16954;SDS011;8594;52.052;8.354;2023-04-24T04:51:12;13.47;;;8.70;;
16954;SDS011;8594;52.052;8.354;2023-04-24T04:53:39;15.30;;;8.50;;
16954;SDS011;8594;52.052;8.354;2023-04-24T04:56:06;21.13;;;9.97;;
16954;SDS011;8594;52.052;8.354;2023-04-24T04:58:33;17.03;;;9.30;;
16954;SDS011;8594;52.052;8.354;2023-04-24T05:01:00;13.10;;;8.27;;
16954;SDS011;8594;52.052;8.354;2023-04-24T05:03:27;14.40;;;8.80;;
16954;SDS011;8594;52.052;8.354;2023-04-24T05:05:55;15.77;;;9.13;;
16954;SDS011;8594;52.052;8.354;2023-04-24T05:08:23;14.57;;;8.47;;
16954;SDS011;8594;52.052;8.354;2023-04-24T05:10:50;14.33;;;8.30;;
16954;SDS011;8594;52.052;8.354;2023-04-24T05:13:17;16.17;;;9.00;;
16954;SDS011;8594;52.052;8.354;2023-04-24T05:15:43;17.13;;;9.30;;
16954;SDS011;8594;52.052;8.354;2023-04-24T05:18:10;16.77;;;9.50;;
16954;SDS011;8594;52.052;8.354;2023-04-24T05:20:37;17.20;;;8.70;;
16954;SDS011;8594;52.052;8.354;2023-04-24T05:23:05;13.83;;;8.90;;
16954;SDS011;8594;52.052;8.354;2023-04-24T05:25:32;16.70;;;8.90;;
16954;SDS011;8594;52.052;8.354;2023-04-24T05:28:00;15.70;;;9.23;;
16954;SDS011;8594;52.052;8.354;2023-04-24T05:30:27;16.47;;;8.70;;
16954;SDS011;8594;52.052;8.354;2023-04-24T05:32:54;15.17;;;8.97;;
16954;SDS011;8594;52.052;8.354;2023-04-24T05:35:21;18.27;;;9.27;;
16954;SDS011;8594;52.052;8.354;2023-04-24T05:37:47;17.47;;;9.37;;
16954;SDS011;8594;52.052;8.354;2023-04-24T05:40:16;21.03;;;9.37;;
16954;SDS011;8594;52.052;8.354;2023-04-24T05:42:43;22.17;;;10.17;;
16954;SDS011;8594;52.052;8.354;2023-04-24T05:45:09;19.37;;;10.43;;
16954;SDS011;8594;52.052;8.354;2023-04-24T05:47:41;19.77;;;9.07;;
16954;SDS011;8594;52.052;8.354;2023-04-24T05:50:08;16.60;;;9.57;;
16954;SDS011;8594;52.052;8.354;2023-04-24T05:52:36;24.40;;;13.97;;
16954;SDS011;8594;52.052;8.354;2023-04-24T05:55:03;20.50;;;10.70;;
16954;SDS011;8594;52.052;8.354;2023-04-24T05:57:32;17.57;;;9.73;;
16954;SDS011;8594;52.052;8.354;2023-04-24T05:59:59;21.63;;;10.87;;
16954;SDS011;8594;52.052;8.354;2023-04-24T06:02:25;19.60;;;10.77;;
16954;SDS011;8594;52.052;8.354;2023-04-24T06:04:52;17.03;;;9.90;;
16954;SDS011;8594;52.052;8.354;2023-04-24T06:07:20;20.90;;;10.10;;
16954;SDS011;8594;52.052;8.354;2023-04-24T06:09:47;17.13;;;9.73;;
16954;SDS011;8594;52.052;8.354;2023-04-24T06:12:13;25.80;;;10.33;;
16954;SDS011;8594;52.052;8.354;2023-04-24T06:14:42;18.67;;;10.17;;
16954;SDS011;8594;52.052;8.354;2023-04-24T06:17:09;17.23;;;10.60;;
16954;SDS011;8594;52.052;8.354;2023-04-24T06:19:36;18.30;;;10.17;;
16954;SDS011;8594;52.052;8.354;2023-04-24T06:22:02;17.80;;;10.13;;
16954;SDS011;8594;52.052;8.354;2023-04-24T06:24:29;20.43;;;10.90;;
16954;SDS011;8594;52.052;8.354;2023-04-24T06:26:56;18.87;;;10.90;;
16954;SDS011;8594;52.052;8.354;2023-04-24T06:29:24;18.23;;;10.67;;
16954;SDS011;8594;52.052;8.354;2023-04-24T06:31:52;17.40;;;10.30;;
16954;SDS011;8594;52.052;8.354;2023-04-24T06:34:19;16.17;;;10.93;;
16954;SDS011;8594;52.052;8.354;2023-04-24T06:36:46;20.87;;;11.30;;
16954;SDS011;8594;52.052;8.354;2023-04-24T06:39:13;17.90;;;10.87;;
16954;SDS011;8594;52.052;8.354;2023-04-24T06:41:40;20.43;;;11.03;;
16954;SDS011;8594;52.052;8.354;2023-04-24T06:44:07;19.63;;;10.83;;
16954;SDS011;8594;52.052;8.354;2023-04-24T06:46:34;18.00;;;11.43;;
16954;SDS011;8594;52.052;8.354;2023-04-24T06:49:02;18.60;;;11.10;;
16954;SDS011;8594;52.052;8.354;2023-04-24T06:51:29;19.30;;;10.43;;
16954;SDS011;8594;52.052;8.354;2023-04-24T06:53:57;17.73;;;11.33;;
16954;SDS011;8594;52.052;8.354;2023-04-24T06:56:25;19.33;;;11.00;;
16954;SDS011;8594;52.052;8.354;2023-04-24T06:58:53;17.40;;;10.03;;
16954;SDS011;8594;52.052;8.354;2023-04-24T07:01:20;19.83;;;10.83;;
16954;SDS011;8594;52.052;8.354;2023-04-24T07:03:47;19.80;;;11.33;;
16954;SDS011;8594;52.052;8.354;2023-04-24T07:06:15;19.47;;;10.37;;
16954;SDS011;8594;52.052;8.354;2023-04-24T07:08:43;19.90;;;10.87;;
16954;SDS011;8594;52.052;8.354;2023-04-24T07:11:10;20.97;;;11.23;;
16954;SDS011;8594;52.052;8.354;2023-04-24T07:13:37;21.33;;;10.73;;
16954;SDS011;8594;52.052;8.354;2023-04-24T07:16:06;20.80;;;10.87;;
16954;SDS011;8594;52.052;8.354;2023-04-24T07:18:33;17.30;;;10.43;;
16954;SDS011;8594;52.052;8.354;2023-04-24T07:21:01;20.23;;;10.73;;
16954;SDS011;8594;52.052;8.354;2023-04-24T07:23:29;18.77;;;10.47;;
16954;SDS011;8594;52.052;8.354;2023-04-24T07:25:56;15.60;;;9.93;;
16954;SDS011;8594;52.052;8.354;2023-04-24T07:28:23;17.10;;;10.33;;
16954;SDS011;8594;52.052;8.354;2023-04-24T07:30:50;17.33;;;10.70;;
16954;SDS011;8594;52.052;8.354;2023-04-24T07:33:18;15.43;;;9.60;;
16954;SDS011;8594;52.052;8.354;2023-04-24T07:35:45;14.60;;;9.37;;
16954;SDS011;8594;52.052;8.354;2023-04-24T07:38:12;14.83;;;8.47;;
16954;SDS011;8594;52.052;8.354;2023-04-24T07:40:41;10.63;;;6.57;;
16954;SDS011;8594;52.052;8.354;2023-04-24T07:43:07;10.67;;;7.17;;
16954;SDS011;8594;52.052;8.354;2023-04-24T07:45:34;9.27;;;6.97;;
16954;SDS011;8594;52.052;8.354;2023-04-24T07:48:02;12.13;;;6.63;;
16954;SDS011;8594;52.052;8.354;2023-04-24T07:50:29;10.90;;;6.27;;
16954;SDS011;8594;52.052;8.354;2023-04-24T07:52:56;10.20;;;5.67;;
16954;SDS011;8594;52.052;8.354;2023-04-24T07:55:23;9.30;;;6.00;;
16954;SDS011;8594;52.052;8.354;2023-04-24T07:57:51;8.50;;;5.67;;
16954;SDS011;8594;52.052;8.354;2023-04-24T08:00:18;9.00;;;6.00;;
16954;SDS011;8594;52.052;8.354;2023-04-24T08:02:46;11.43;;;6.07;;
16954;SDS011;8594;52.052;8.354;2023-04-24T08:05:12;9.00;;;5.87;;
16954;SDS011;8594;52.052;8.354;2023-04-24T08:07:39;10.70;;;6.40;;
16954;SDS011;8594;52.052;8.354;2023-04-24T08:10:07;8.27;;;5.90;;
16954;SDS011;8594;52.052;8.354;2023-04-24T08:12:36;8.33;;;5.80;;
16954;SDS011;8594;52.052;8.354;2023-04-24T08:15:05;8.70;;;6.30;;
16954;SDS011;8594;52.052;8.354;2023-04-24T08:17:33;12.63;;;6.30;;
16954;SDS011;8594;52.052;8.354;2023-04-24T08:20:00;11.50;;;6.37;;
16954;SDS011;8594;52.052;8.354;2023-04-24T08:22:28;7.67;;;5.23;;
16954;SDS011;8594;52.052;8.354;2023-04-24T08:24:55;10.13;;;5.70;;
16954;SDS011;8594;52.052;8.354;2023-04-24T08:27:22;7.07;;;4.60;;
16954;SDS011;8594;52.052;8.354;2023-04-24T08:29:49;7.83;;;5.03;;
16954;SDS011;8594;52.052;8.354;2023-04-24T08:32:17;9.00;;;5.20;;
16954;SDS011;8594;52.052;8.354;2023-04-24T08:34:44;8.63;;;4.83;;
16954;SDS011;8594;52.052;8.354;2023-04-24T08:37:11;7.23;;;4.80;;
16954;SDS011;8594;52.052;8.354;2023-04-24T08:39:39;6.37;;;4.67;;
16954;SDS011;8594;52.052;8.354;2023-04-24T08:42:06;5.43;;;4.13;;
16954;SDS011;8594;52.052;8.354;2023-04-24T08:44:34;8.50;;;4.47;;
16954;SDS011;8594;52.052;8.354;2023-04-24T08:47:02;6.50;;;4.13;;
16954;SDS011;8594;52.052;8.354;2023-04-24T08:49:31;5.50;;;4.10;;
16954;SDS011;8594;52.052;8.354;2023-04-24T08:51:59;5.33;;;4.27;;
16954;SDS011;8594;52.052;8.354;2023-04-24T08:54:28;9.83;;;4.60;;
16954;SDS011;8594;52.052;8.354;2023-04-24T08:56:56;6.27;;;4.10;;
16954;SDS011;8594;52.052;8.354;2023-04-24T08:59:27;6.50;;;3.60;;
16954;SDS011;8594;52.052;8.354;2023-04-24T09:01:54;4.40;;;3.40;;
16954;SDS011;8594;52.052;8.354;2023-04-24T09:04:23;3.93;;;3.50;;
16954;SDS011;8594;52.052;8.354;2023-04-24T09:06:52;5.13;;;3.80;;
16954;SDS011;8594;52.052;8.354;2023-04-24T09:09:22;3.83;;;3.43;;
16954;SDS011;8594;52.052;8.354;2023-04-24T09:11:51;5.90;;;3.60;;
16954;SDS011;8594;52.052;8.354;2023-04-24T09:14:20;4.20;;;3.30;;
16954;SDS011;8594;52.052;8.354;2023-04-24T09:16:48;5.70;;;3.53;;
16954;SDS011;8594;52.052;8.354;2023-04-24T09:19:16;4.17;;;3.33;;
16954;SDS011;8594;52.052;8.354;2023-04-24T09:21:45;6.33;;;3.50;;
16954;SDS011;8594;52.052;8.354;2023-04-24T09:24:15;6.50;;;3.20;;
16954;SDS011;8594;52.052;8.354;2023-04-24T09:26:45;5.00;;;3.07;;
16954;SDS011;8594;52.052;8.354;2023-04-24T09:29:14;3.83;;;3.03;;
16954;SDS011;8594;52.052;8.354;2023-04-24T09:31:42;4.20;;;3.00;;
16954;SDS011;8594;52.052;8.354;2023-04-24T09:34:10;4.53;;;2.60;;
16954;SDS011;8594;52.052;8.354;2023-04-24T09:36:38;4.00;;;2.90;;
16954;SDS011;8594;52.052;8.354;2023-04-24T09:39:08;4.73;;;3.30;;
16954;SDS011;8594;52.052;8.354;2023-04-24T09:41:44;4.67;;;3.10;;
16954;SDS011;8594;52.052;8.354;2023-04-24T09:44:13;5.00;;;2.90;;
16954;SDS011;8594;52.052;8.354;2023-04-24T09:46:42;6.57;;;3.37;;
16954;SDS011;8594;52.052;8.354;2023-04-24T09:49:13;4.77;;;3.50;;
16954;SDS011;8594;52.052;8.354;2023-04-24T09:51:41;4.10;;;3.00;;
16954;SDS011;8594;52.052;8.354;2023-04-24T09:54:13;7.40;;;3.73;;
16954;SDS011;8594;52.052;8.354;2023-04-24T09:56:43;6.47;;;3.20;;
16954;SDS011;8594;52.052;8.354;2023-04-24T09:59:11;6.83;;;4.03;;
16954;SDS011;8594;52.052;8.354;2023-04-24T10:01:38;4.50;;;3.53;;
16954;SDS011;8594;52.052;8.354;2023-04-24T10:04:14;5.23;;;3.77;;
16954;SDS011;8594;52.052;8.354;2023-04-24T10:06:43;5.20;;;3.53;;
16954;SDS011;8594;52.052;8.354;2023-04-24T10:09:11;11.37;;;4.10;;
16954;SDS011;8594;52.052;8.354;2023-04-24T10:11:40;5.53;;;4.07;;
16954;SDS011;8594;52.052;8.354;2023-04-24T10:14:11;7.40;;;3.63;;
16954;SDS011;8594;52.052;8.354;2023-04-24T10:16:40;3.50;;;3.20;;
16954;SDS011;8594;52.052;8.354;2023-04-24T10:19:09;5.97;;;4.30;;
16954;SDS011;8594;52.052;8.354;2023-04-24T10:21:38;5.20;;;3.73;;
16954;SDS011;8594;52.052;8.354;2023-04-24T10:24:07;6.70;;;3.43;;
16954;SDS011;8594;52.052;8.354;2023-04-24T10:26:35;3.83;;;3.40;;
16954;SDS011;8594;52.052;8.354;2023-04-24T10:29:02;4.00;;;3.40;;
16954;SDS011;8594;52.052;8.354;2023-04-24T10:31:36;6.40;;;3.40;;
16954;SDS011;8594;52.052;8.354;2023-04-24T10:34:03;4.87;;;3.67;;
16954;SDS011;8594;52.052;8.354;2023-04-24T10:36:31;4.90;;;4.00;;
16954;SDS011;8594;52.052;8.354;2023-04-24T10:39:01;4.30;;;3.90;;
16954;SDS011;8594;52.052;8.354;2023-04-24T10:41:31;4.73;;;4.00;;
16954;SDS011;8594;52.052;8.354;2023-04-24T10:44:06;5.50;;;4.63;;
16954;SDS011;8594;52.052;8.354;2023-04-24T10:46:36;7.03;;;4.30;;
16954;SDS011;8594;52.052;8.354;2023-04-24T10:49:04;5.80;;;4.50;;
16954;SDS011;8594;52.052;8.354;2023-04-24T10:51:44;4.40;;;3.80;;
16954;SDS011;8594;52.052;8.354;2023-04-24T10:54:23;4.73;;;3.93;;
16954;SDS011;8594;52.052;8.354;2023-04-24T10:56:52;5.03;;;4.47;;
16954;SDS011;8594;52.052;8.354;2023-04-24T10:59:39;6.40;;;5.03;;
16954;SDS011;8594;52.052;8.354;2023-04-24T11:02:08;6.57;;;4.83;;
16954;SDS011;8594;52.052;8.354;2023-04-24T11:04:35;8.07;;;5.50;;
16954;SDS011;8594;52.052;8.354;2023-04-24T11:07:02;6.87;;;5.00;;
16954;SDS011;8594;52.052;8.354;2023-04-24T11:09:30;7.57;;;5.33;;
16954;SDS011;8594;52.052;8.354;2023-04-24T11:12:03;5.97;;;4.40;;
16954;SDS011;8594;52.052;8.354;2023-04-24T11:17:32;7.10;;;3.87;;
16954;SDS011;8594;52.052;8.354;2023-04-24T11:20:02;5.30;;;3.03;;
16954;SDS011;8594;52.052;8.354;2023-04-24T11:22:31;3.10;;;2.53;;
16954;SDS011;8594;52.052;8.354;2023-04-24T11:25:01;3.63;;;2.67;;
16954;SDS011;8594;52.052;8.354;2023-04-24T11:27:29;2.50;;;2.20;;
16954;SDS011;8594;52.052;8.354;2023-04-24T11:29:59;1.90;;;1.43;;
16954;SDS011;8594;52.052;8.354;2023-04-24T11:32:28;2.50;;;1.80;;
16954;SDS011;8594;52.052;8.354;2023-04-24T11:35:03;1.50;;;1.30;;
16954;SDS011;8594;52.052;8.354;2023-04-24T11:37:33;2.13;;;1.40;;
16954;SDS011;8594;52.052;8.354;2023-04-24T11:40:02;2.47;;;1.20;;
16954;SDS011;8594;52.052;8.354;2023-04-24T11:42:35;3.67;;;1.50;;
16954;SDS011;8594;52.052;8.354;2023-04-24T11:45:06;2.33;;;1.20;;
16954;SDS011;8594;52.052;8.354;2023-04-24T11:47:37;3.20;;;1.67;;
16954;SDS011;8594;52.052;8.354;2023-04-24T11:50:05;3.77;;;1.77;;
16954;SDS011;8594;52.052;8.354;2023-04-24T11:52:36;2.97;;;2.17;;
16954;SDS011;8594;52.052;8.354;2023-04-24T11:55:06;3.63;;;2.50;;
16954;SDS011;8594;52.052;8.354;2023-04-24T11:57:35;3.87;;;2.60;;
16954;SDS011;8594;52.052;8.354;2023-04-24T12:00:02;4.17;;;3.10;;
16954;SDS011;8594;52.052;8.354;2023-04-24T12:02:31;4.23;;;3.20;;
16954;SDS011;8594;52.052;8.354;2023-04-24T12:04:59;7.43;;;3.60;;
16954;SDS011;8594;52.052;8.354;2023-04-24T12:07:26;5.77;;;3.70;;
16954;SDS011;8594;52.052;8.354;2023-04-24T12:09:56;5.70;;;3.50;;
16954;SDS011;8594;52.052;8.354;2023-04-24T12:12:25;7.93;;;3.53;;
16954;SDS011;8594;52.052;8.354;2023-04-24T12:14:54;8.43;;;3.87;;
16954;SDS011;8594;52.052;8.354;2023-04-24T12:17:26;6.87;;;4.20;;
16954;SDS011;8594;52.052;8.354;2023-04-24T12:19:59;7.60;;;4.40;;
16954;SDS011;8594;52.052;8.354;2023-04-24T12:22:42;6.93;;;4.50;;
16954;SDS011;8594;52.052;8.354;2023-04-24T12:25:11;21.83;;;4.57;;
16954;SDS011;8594;52.052;8.354;2023-04-24T12:27:39;7.43;;;4.90;;
16954;SDS011;8594;52.052;8.354;2023-04-24T12:30:11;12.67;;;5.43;;
16954;SDS011;8594;52.052;8.354;2023-04-24T12:32:43;15.67;;;5.53;;
16954;SDS011;8594;52.052;8.354;2023-04-24T12:35:18;13.20;;;5.87;;
16954;SDS011;8594;52.052;8.354;2023-04-24T12:37:47;12.80;;;5.57;;
16954;SDS011;8594;52.052;8.354;2023-04-24T12:40:14;11.63;;;5.57;;
16954;SDS011;8594;52.052;8.354;2023-04-24T12:42:42;14.20;;;5.67;;
16954;SDS011;8594;52.052;8.354;2023-04-24T12:45:11;9.13;;;5.87;;
16954;SDS011;8594;52.052;8.354;2023-04-24T12:47:39;9.67;;;5.73;;
16954;SDS011;8594;52.052;8.354;2023-04-24T12:50:08;14.93;;;5.17;;
16954;SDS011;8594;52.052;8.354;2023-04-24T12:52:38;10.57;;;5.77;;
16954;SDS011;8594;52.052;8.354;2023-04-24T12:55:05;9.37;;;5.73;;
16954;SDS011;8594;52.052;8.354;2023-04-24T12:57:34;8.53;;;5.13;;
16954;SDS011;8594;52.052;8.354;2023-04-24T13:00:03;7.47;;;4.93;;
16954;SDS011;8594;52.052;8.354;2023-04-24T13:02:32;9.03;;;3.97;;
16954;SDS011;8594;52.052;8.354;2023-04-24T13:05:00;8.77;;;4.20;;
16954;SDS011;8594;52.052;8.354;2023-04-24T13:07:27;8.53;;;4.20;;
16954;SDS011;8594;52.052;8.354;2023-04-24T13:09:56;13.27;;;4.37;;
16954;SDS011;8594;52.052;8.354;2023-04-24T13:12:23;9.67;;;4.37;;
16954;SDS011;8594;52.052;8.354;2023-04-24T13:14:51;10.73;;;4.47;;
16954;SDS011;8594;52.052;8.354;2023-04-24T13:17:18;9.33;;;4.47;;
16954;SDS011;8594;52.052;8.354;2023-04-24T13:19:45;9.40;;;4.53;;
16954;SDS011;8594;52.052;8.354;2023-04-24T13:22:12;8.83;;;4.47;;
16954;SDS011;8594;52.052;8.354;2023-04-24T13:42:35;16.57;;;5.83;;
16954;SDS011;8594;52.052;8.354;2023-04-24T13:45:01;15.03;;;5.40;;
16954;SDS011;8594;52.052;8.354;2023-04-24T13:47:29;12.33;;;5.77;;
16954;SDS011;8594;52.052;8.354;2023-04-24T13:49:56;16.43;;;6.03;;
16954;SDS011;8594;52.052;8.354;2023-04-24T13:52:23;14.20;;;5.83;;
16954;SDS011;8594;52.052;8.354;2023-04-24T13:54:49;16.07;;;6.37;;
16954;SDS011;8594;52.052;8.354;2023-04-24T13:57:16;13.87;;;6.30;;
16954;SDS011;8594;52.052;8.354;2023-04-24T13:59:45;18.07;;;6.27;;
16954;SDS011;8594;52.052;8.354;2023-04-24T14:02:12;20.70;;;7.07;;
16954;SDS011;8594;52.052;8.354;2023-04-24T14:04:38;17.97;;;6.43;;
16954;SDS011;8594;52.052;8.354;2023-04-24T14:07:05;14.27;;;6.30;;
16954;SDS011;8594;52.052;8.354;2023-04-24T14:09:33;18.57;;;6.80;;
16954;SDS011;8594;52.052;8.354;2023-04-24T14:12:00;15.87;;;6.30;;
16954;SDS011;8594;52.052;8.354;2023-04-24T14:14:28;19.03;;;6.47;;
16954;SDS011;8594;52.052;8.354;2023-04-24T14:16:57;13.60;;;5.70;;
16954;SDS011;8594;52.052;8.354;2023-04-24T14:19:23;12.23;;;5.30;;
16954;SDS011;8594;52.052;8.354;2023-04-24T14:21:50;10.53;;;5.53;;
16954;SDS011;8594;52.052;8.354;2023-04-24T14:24:18;13.07;;;5.63;;
16954;SDS011;8594;52.052;8.354;2023-04-24T14:26:45;11.80;;;5.53;;
16954;SDS011;8594;52.052;8.354;2023-04-24T14:29:11;12.90;;;4.90;;
16954;SDS011;8594;52.052;8.354;2023-04-24T14:31:38;9.10;;;4.60;;
16954;SDS011;8594;52.052;8.354;2023-04-24T14:34:07;12.67;;;4.70;;
16954;SDS011;8594;52.052;8.354;2023-04-24T14:36:34;13.10;;;5.20;;
16954;SDS011;8594;52.052;8.354;2023-04-24T14:39:01;15.70;;;4.70;;
16954;SDS011;8594;52.052;8.354;2023-04-24T14:41:31;16.17;;;5.33;;
16954;SDS011;8594;52.052;8.354;2023-04-24T14:44:00;14.27;;;5.57;;
16954;SDS011;8594;52.052;8.354;2023-04-24T14:46:27;14.70;;;5.67;;
16954;SDS011;8594;52.052;8.354;2023-04-24T14:48:55;13.40;;;5.60;;
16954;SDS011;8594;52.052;8.354;2023-04-24T14:51:23;11.87;;;5.30;;
16954;SDS011;8594;52.052;8.354;2023-04-24T14:53:51;11.10;;;5.20;;
16954;SDS011;8594;52.052;8.354;2023-04-24T14:56:18;10.83;;;5.13;;
16954;SDS011;8594;52.052;8.354;2023-04-24T14:58:45;11.77;;;5.17;;
16954;SDS011;8594;52.052;8.354;2023-04-24T15:01:12;10.10;;;4.40;;
16954;SDS011;8594;52.052;8.354;2023-04-24T15:03:39;11.33;;;4.60;;
16954;SDS011;8594;52.052;8.354;2023-04-24T15:06:06;8.97;;;4.03;;
16954;SDS011;8594;52.052;8.354;2023-04-24T15:08:34;7.93;;;4.07;;
16954;SDS011;8594;52.052;8.354;2023-04-24T15:11:01;12.67;;;3.20;;
16954;SDS011;8594;52.052;8.354;2023-04-24T15:13:31;7.87;;;3.80;;
16954;SDS011;8594;52.052;8.354;2023-04-24T15:15:58;10.50;;;3.07;;
16954;SDS011;8594;52.052;8.354;2023-04-24T15:18:25;9.30;;;3.20;;
16954;SDS011;8594;52.052;8.354;2023-04-24T15:20:53;9.07;;;3.13;;